Time;durP1;ratioP1;P1;durP2;ratioP2;P2;SDS_P1;SDS_P2;PMS_P1;PMS_P2;Temp;Humidity;BMP_temperature;BMP_pressure;BME280_temperature;BME280_humidity;BME280_pressure;Samples;Min_cycle;Max_cycle;Signal;HPM_P1;HPM_P2
2022/12/01 00:00:06;;;;;;;;;;;;;;;;;;5020976;28;5015;-65
2022/12/01 00:02:32;;;;;;;;;;;;;;;;;;5021086;28;5022;-65
2022/12/01 00:04:57;;;;;;;;;;;;;;;;;;5023115;28;1539;-65
2022/12/01 00:07:22;;;;;;;;;;;;;;;;;;5016811;28;5079;-64
2022/12/01 00:12:31;;;;;;;;;;;;;;;;;;5028777;28;5166;-64
2022/12/01 00:14:59;;;;;;;;;;;;;;;;;;5029629;28;4496;-64
2022/12/01 00:17:24;;;;;;;;;;;;;;;;;;5019548;28;5086;-66
2022/12/01 00:19:50;;;;;;;;;;;;;;;;;;5022761;28;4101;-65
2022/12/01 00:22:15;;;;;;;;;;;;;;;;;;5015065;28;5277;-66
2022/12/01 00:24:40;;;;;;;;;;;;;;;;;;5023608;28;5174;-64
2022/12/01 00:27:06;;;;;;;;;;;;;;;;;;5025924;28;5369;-65
2022/12/01 00:29:31;;;;;;;;;;;;;;;;;;5025950;28;5410;-64
2022/12/01 00:31:56;;;;;;;;;;;;;;;;;;5023906;28;3532;-64
2022/12/01 00:34:22;;;;;;;;;;;;;;;;;;5021279;28;4989;-64
2022/12/01 00:36:48;;;;;;;;;;;;;;;;;;5043525;28;4636;-63
2022/12/01 00:39:13;;;;;;;;;;;;;;;;;;5018193;28;4977;-64
2022/12/01 00:41:38;;;;;;;;;;;;;;;;;;5023702;28;4957;-65
2022/12/01 00:44:03;;;;;;;;;;;;;;;;;;5019520;28;3202;-65
2022/12/01 00:46:29;;;;;;;;;;;;;;;;;;5021308;28;5058;-64
2022/12/01 00:48:54;;;;;;;;;;;;;;;;;;5029027;28;5052;-65
2022/12/01 00:51:19;;;;;;;;;;;;;;;;;;5027305;28;4884;-64
2022/12/01 00:53:45;;;;;;;;;;;;;;;;;;5021113;28;4886;-64
2022/12/01 00:56:10;;;;;;;;;;;;;;;;;;5019109;28;3204;-65
2022/12/01 00:58:35;;;;;;;;;;;;;;;;;;5025307;28;5015;-65
2022/12/01 01:01:00;;;;;;;;;;;;;;;;;;5021794;28;4792;-65
2022/12/01 01:03:26;;;;;;;;;;;;;;;;;;5027501;28;5082;-66
2022/12/01 01:05:51;;;;;;;;;;;;;;;;;;5022819;28;4731;-66
2022/12/01 01:08:16;;;;;;;;;;;;;;;;;;5026001;28;3507;-66
2022/12/01 01:10:42;;;;;;;;;;;;;;;;;;5026538;28;4989;-65
2022/12/01 01:13:07;;;;;;;;;;;;;;;;;;5023823;28;4459;-65
2022/12/01 01:15:33;;;;;;;;;;;;;;;;;;5028472;28;5030;-65
2022/12/01 01:17:58;;;;;;;;;;;;;;;;;;5023566;28;4479;-65
2022/12/01 01:20:23;;;;;;;;;;;;;;;;;;5043171;28;5013;-65
2022/12/01 01:22:48;;;;;;;;;;;;;;;;;;5019915;28;3422;-65
2022/12/01 01:25:14;;;;;;;;;;;;;;;;;;5024594;28;4958;-65
2022/12/01 01:27:39;;;;;;;;;;;;;;;;;;5023481;28;5091;-66
2022/12/01 01:30:05;;;;;;;;;;;;;;;;;;5017765;28;4500;-66
2022/12/01 01:32:30;;;;;;;;;;;;;;;;;;5019153;28;4730;-66
2022/12/01 01:34:55;;;;;;;;;;;;;;;;;;5018188;28;3340;-64
2022/12/01 01:37:20;;;;;;;;;;;;;;;;;;5019603;28;4943;-64
2022/12/01 01:39:46;;;;;;;;;;;;;;;;;;5020398;28;5253;-64
2022/12/01 01:42:11;;;;;;;;;;;;;;;;;;5020531;28;4872;-64
2022/12/01 01:44:49;;;;;;;;;;;;;;;;;;5022718;28;5131;-64
2022/12/01 01:47:15;;;;;;;;;;;;;;;;;;5024310;28;1082;-63
2022/12/01 01:49:40;;;;;;;;;;;;;;;;;;5033387;28;4435;-64
2022/12/01 01:52:06;;;;;;;;;;;;;;;;;;5029081;28;4663;-64
2022/12/01 01:54:32;;;;;;;;;;;;;;;;;;5036089;28;5060;-63
2022/12/01 01:56:58;;;;;;;;;;;;;;;;;;5022395;28;4580;-64
2022/12/01 01:59:25;;;;;;;;;;;;;;;;;;5035760;28;5148;-65
2022/12/01 02:01:54;;;;;;;;;;;;;;;;;;5033818;28;3485;-64
2022/12/01 02:04:20;;;;;;;;;;;;;;;;;;5022630;28;4872;-64
2022/12/01 02:06:45;;;;;;;;;;;;;;;;;;5020835;28;5299;-64
2022/12/01 02:09:11;;;;;;;;;;;;;;;;;;5039564;28;4903;-65
2022/12/01 02:11:48;;;;;;;;;;;;;;;;;;5016595;28;5125;-64
2022/12/01 02:14:23;;;;;;;;;;;;;;;;;;5017556;28;3535;-64
2022/12/01 02:16:49;;;;;;;;;;;;;;;;;;5023614;28;4545;-64
2022/12/01 02:19:27;;;;;;;;;;;;;;;;;;5024724;28;4977;-64
2022/12/01 02:22:17;;;;;;;;;;;;;;;;;;5034386;28;5027;-64
2022/12/01 02:25:00;;;;;;;;;;;;;;;;;;5019150;28;5183;-64
2022/12/01 02:27:29;;;;;;;;;;;;;;;;;;5019422;28;4705;-65
2022/12/01 02:30:03;;;;;;;;;;;;;;;;;;5022610;28;5564;-64
2022/12/01 02:32:46;;;;;;;;;;;;;;;;;;5019409;28;5142;-64
2022/12/01 02:35:14;;;;;;;;;;;;;;;;;;5033227;28;3316;-65
2022/12/01 02:37:58;;;;;;;;;;;;;;;;;;5015043;28;5117;-65
2022/12/01 02:40:25;;;;;;;;;;;;;;;;;;5018963;28;4518;-65
2022/12/01 02:42:53;;;;;;;;;;;;;;;;;;5020673;28;4933;-64
2022/12/01 02:45:30;;;;;;;;;;;;;;;;;;5018148;28;5062;-64
2022/12/01 02:47:56;;;;;;;;;;;;;;;;;;5039258;28;5119;-65
2022/12/01 02:50:22;;;;;;;;;;;;;;;;;;5015202;28;3268;-65
2022/12/01 02:52:47;;;;;;;;;;;;;;;;;;5005412;28;4999;-64
2022/12/01 02:55:12;;;;;;;;;;;;;;;;;;4992131;28;5070;-65
2022/12/01 02:57:37;;;;;;;;;;;;;;;;;;4997653;28;5160;-65
2022/12/01 03:00:03;;;;;;;;;;;;;;;;;;5003826;28;4520;-65
2022/12/01 03:02:41;;;;;;;;;;;;;;;;;;4996578;28;5152;-65
2022/12/01 03:05:09;;;;;;;;;;;;;;;;;;5035421;28;1236;-65
2022/12/01 03:07:39;;;;;;;;;;;;;;;;;;5038622;28;4938;-65
2022/12/01 03:10:23;;;;;;;;;;;;;;;;;;5024188;28;5195;-65
2022/12/01 03:12:51;;;;;;;;;;;;;;;;;;5022912;28;4542;-65
2022/12/01 03:15:19;;;;;;;;;;;;;;;;;;5029901;28;5039;-65
2022/12/01 03:17:55;;;;;;;;;;;;;;;;;;5021872;28;4895;-64
2022/12/01 03:20:30;;;;;;;;;;;;;;;;;;5030079;28;1362;-65
2022/12/01 03:22:58;;;;;;;;;;;;;;;;;;5026956;28;5173;-65
2022/12/01 03:25:23;;;;;;;;;;;;;;;;;;5027097;28;4457;-65
2022/12/01 03:27:48;;;;;;;;;;;;;;;;;;5002444;28;4695;-65
2022/12/01 03:30:14;;;;;;;;;;;;;;;;;;5039487;28;5099;-65
2022/12/01 03:32:49;;;;;;;;;;;;;;;;;;5020108;28;5070;-65
2022/12/01 03:35:15;;;;;;;;;;;;;;;;;;5028556;28;1339;-65
2022/12/01 03:37:42;;;;;;;;;;;;;;;;;;5034590;28;4596;-65
2022/12/01 03:40:08;;;;;;;;;;;;;;;;;;5038357;28;4439;-65
2022/12/01 03:42:36;;;;;;;;;;;;;;;;;;5044116;28;4532;-65
2022/12/01 03:45:03;;;;;;;;;;;;;;;;;;5043658;28;5158;-65
2022/12/01 03:47:31;;;;;;;;;;;;;;;;;;5022133;28;5129;-65
2022/12/01 03:49:57;;;;;;;;;;;;;;;;;;5026947;28;3425;-65
2022/12/01 03:52:36;;;;;;;;;;;;;;;;;;5026049;28;5401;-65
2022/12/01 03:55:10;;;;;;;;;;;;;;;;;;5041460;28;4960;-65
2022/12/01 03:57:46;;;;;;;;;;;;;;;;;;5024692;28;5252;-65
2022/12/01 04:00:11;;;;;;;;;;;;;;;;;;5024790;28;5142;-64
2022/12/01 04:02:37;;;;;;;;;;;;;;;;;;5013430;28;5269;-66
2022/12/01 04:05:03;;;;;;;;;;;;;;;;;;5025309;28;3349;-65
2022/12/01 04:07:29;;;;;;;;;;;;;;;;;;5022971;28;4424;-64
2022/12/01 04:09:54;;;;;;;;;;;;;;;;;;5022335;28;4761;-64
2022/12/01 04:12:28;;;;;;;;;;;;;;;;;;5014744;28;5322;-65
2022/12/01 04:14:54;;;;;;;;;;;;;;;;;;5023919;28;4706;-65
2022/12/01 04:17:19;;;;;;;;;;;;;;;;;;5023924;28;3308;-65
2022/12/01 04:19:44;;;;;;;;;;;;;;;;;;5028726;28;5054;-65
2022/12/01 04:22:09;;;;;;;;;;;;;;;;;;5014697;28;4966;-65
2022/12/01 04:24:35;;;;;;;;;;;;;;;;;;5023826;28;5201;-65
2022/12/01 04:27:00;;;;;;;;;;;;;;;;;;5038097;28;5407;-65
2022/12/01 04:29:25;;;;;;;;;;;;;;;;;;5019007;28;4816;-66
2022/12/01 04:31:51;;;;;;;;;;;;;;;;;;5023312;28;3272;-66
2022/12/01 04:34:16;;;;;;;;;;;;;;;;;;5008415;28;5119;-65
2022/12/01 04:36:41;;;;;;;;;;;;;;;;;;5005979;28;5170;-65
2022/12/01 04:39:07;;;;;;;;;;;;;;;;;;5012445;28;5112;-65
2022/12/01 04:41:32;;;;;;;;;;;;;;;;;;5018860;28;5061;-64
2022/12/01 04:43:57;;;;;;;;;;;;;;;;;;5032160;28;3229;-65
2022/12/01 04:46:23;;;;;;;;;;;;;;;;;;5017594;28;4687;-64
2022/12/01 04:48:48;;;;;;;;;;;;;;;;;;5017240;28;4953;-64
2022/12/01 04:51:13;;;;;;;;;;;;;;;;;;5009633;28;5200;-64
2022/12/01 04:53:39;;;;;;;;;;;;;;;;;;5001588;28;4725;-64
2022/12/01 04:56:04;;;;;;;;;;;;;;;;;;5003108;28;3423;-65
2022/12/01 04:58:30;;;;;;;;;;;;;;;;;;5015704;28;5184;-64
2022/12/01 05:01:00;;;;;;;;;;;;;;;;;;5017475;28;4997;-64
2022/12/01 05:03:25;;;;;;;;;;;;;;;;;;5023256;28;5091;-64
2022/12/01 05:05:59;;;;;;;;;;;;;;;;;;5021639;28;5131;-65
2022/12/01 05:08:24;;;;;;;;;;;;;;;;;;5029122;28;4944;-65
2022/12/01 05:10:49;;;;;;;;;;;;;;;;;;5021928;28;3351;-64
2022/12/01 05:13:14;;;;;;;;;;;;;;;;;;5034187;28;5112;-64
2022/12/01 05:15:40;;;;;;;;;;;;;;;;;;5023239;28;5065;-64
2022/12/01 05:18:06;;;;;;;;;;;;;;;;;;5020727;28;4512;-64
2022/12/01 05:23:14;;;;;;;;;;;;;;;;;;5021275;28;3210;-64
2022/12/01 05:25:41;;;;;;;;;;;;;;;;;;5024318;28;5130;-64
2022/12/01 05:28:06;;;;;;;;;;;;;;;;;;5022278;28;5082;-64
2022/12/01 05:30:31;;;;;;;;;;;;;;;;;;5016369;28;5108;-64
2022/12/01 05:32:57;;;;;;;;;;;;;;;;;;5015654;28;5402;-65
2022/12/01 05:35:22;;;;;;;;;;;;;;;;;;5020989;28;5070;-64
2022/12/01 05:37:47;;;;;;;;;;;;;;;;;;5021069;28;3224;-65
2022/12/01 05:40:12;;;;;;;;;;;;;;;;;;5028840;28;5141;-65
2022/12/01 05:42:38;;;;;;;;;;;;;;;;;;5023861;28;5227;-65
2022/12/01 05:45:03;;;;;;;;;;;;;;;;;;5019438;28;4929;-65
2022/12/01 05:47:28;;;;;;;;;;;;;;;;;;5024556;28;4530;-65
2022/12/01 05:49:54;;;;;;;;;;;;;;;;;;5026348;28;3165;-65
2022/12/01 05:52:19;;;;;;;;;;;;;;;;;;5027691;28;5102;-65
2022/12/01 05:54:44;;;;;;;;;;;;;;;;;;5025032;28;5144;-65
2022/12/01 05:57:09;;;;;;;;;;;;;;;;;;5027556;28;5011;-65
2022/12/01 05:59:34;;;;;;;;;;;;;;;;;;5016275;28;5119;-65
2022/12/01 06:02:00;;;;;;;;;;;;;;;;;;5015126;28;1555;-65
2022/12/01 06:04:25;;;;;;;;;;;;;;;;;;5020797;28;5284;-65
2022/12/01 06:06:50;;;;;;;;;;;;;;;;;;5025822;28;5233;-65
2022/12/01 06:09:15;;;;;;;;;;;;;;;;;;5021051;28;4993;-65
2022/12/01 06:11:41;;;;;;;;;;;;;;;;;;5025342;28;5185;-65
2022/12/01 06:14:06;;;;;;;;;;;;;;;;;;5022901;28;4442;-66
2022/12/01 06:16:31;;;;;;;;;;;;;;;;;;5012893;28;4582;-66
2022/12/01 06:18:57;;;;;;;;;;;;;;;;;;5017025;28;4931;-63
2022/12/01 06:21:22;;;;;;;;;;;;;;;;;;5019478;28;5096;-65
2022/12/01 06:23:47;;;;;;;;;;;;;;;;;;5013816;28;5161;-64
2022/12/01 06:26:12;;;;;;;;;;;;;;;;;;5019020;28;3490;-65
2022/12/01 06:28:38;;;;;;;;;;;;;;;;;;4995483;28;4489;-65
2022/12/01 06:31:03;;;;;;;;;;;;;;;;;;5007111;28;5372;-66
2022/12/01 06:33:28;;;;;;;;;;;;;;;;;;5019429;28;4815;-66
2022/12/01 06:35:57;;;;;;;;;;;;;;;;;;5013579;28;4625;-65
2022/12/01 06:38:23;;;;;;;;;;;;;;;;;;5015054;28;4949;-66
2022/12/01 06:40:48;;;;;;;;;;;;;;;;;;5013061;28;3812;-65
2022/12/01 06:43:13;;;;;;;;;;;;;;;;;;5013889;28;4517;-65
2022/12/01 06:45:39;;;;;;;;;;;;;;;;;;5013828;28;5056;-65
2022/12/01 06:48:04;;;;;;;;;;;;;;;;;;5013585;28;5007;-65
2022/12/01 06:50:29;;;;;;;;;;;;;;;;;;5017471;28;5050;-66
2022/12/01 06:52:54;;;;;;;;;;;;;;;;;;5017709;28;4548;-65
2022/12/01 06:55:20;;;;;;;;;;;;;;;;;;5012497;28;5093;-65
2022/12/01 06:57:45;;;;;;;;;;;;;;;;;;5015589;28;5243;-65
2022/12/01 07:00:12;;;;;;;;;;;;;;;;;;5018743;28;5148;-65
2022/12/01 07:02:37;;;;;;;;;;;;;;;;;;5014790;28;5067;-67
2022/12/01 07:05:03;;;;;;;;;;;;;;;;;;5035174;28;3281;-70
2022/12/01 07:07:28;;;;;;;;;;;;;;;;;;5018648;28;5104;-66
2022/12/01 07:09:53;;;;;;;;;;;;;;;;;;5018779;28;5169;-75
2022/12/01 07:12:18;;;;;;;;;;;;;;;;;;5027232;28;5085;-73
2022/12/01 07:14:44;;;;;;;;;;;;;;;;;;5016301;28;4965;-73
2022/12/01 07:17:09;;;;;;;;;;;;;;;;;;5026158;28;3508;-76
2022/12/01 07:19:34;;;;;;;;;;;;;;;;;;5028532;28;5114;-77
2022/12/01 07:22:00;;;;;;;;;;;;;;;;;;5028293;28;5148;-75
2022/12/01 07:24:25;;;;;;;;;;;;;;;;;;5017218;28;5098;-71
2022/12/01 07:26:50;;;;;;;;;;;;;;;;;;5021144;28;4499;-66
2022/12/01 07:29:15;;;;;;;;;;;;;;;;;;5019757;28;3330;-68
2022/12/01 07:31:41;;;;;;;;;;;;;;;;;;5015822;28;5368;-68
2022/12/01 07:34:06;;;;;;;;;;;;;;;;;;5013026;28;5184;-71
2022/12/01 07:36:31;;;;;;;;;;;;;;;;;;5026355;28;5021;-71
2022/12/01 07:38:56;;;;;;;;;;;;;;;;;;5021938;28;5512;-70
2022/12/01 07:41:22;;;;;;;;;;;;;;;;;;5012138;28;3419;-70
2022/12/01 07:43:47;;;;;;;;;;;;;;;;;;5017188;28;5047;-70
2022/12/01 07:46:16;;;;;;;;;;;;;;;;;;5003469;28;4730;-72
2022/12/01 07:48:42;;;;;;;;;;;;;;;;;;4998114;28;5046;-72
2022/12/01 07:51:08;;;;;;;;;;;;;;;;;;4994953;28;5109;-69
2022/12/01 07:53:34;;;;;;;;;;;;;;;;;;5003618;28;5085;-70
2022/12/01 07:55:59;;;;;;;;;;;;;;;;;;4998470;28;2240;-69
2022/12/01 07:58:25;;;;;;;;;;;;;;;;;;5004349;28;4677;-69
2022/12/01 08:00:50;;;;;;;;;;;;;;;;;;5006523;28;4778;-68
2022/12/01 08:03:15;;;;;;;;;;;;;;;;;;5002393;28;5141;-69
2022/12/01 08:05:41;;;;;;;;;;;;;;;;;;4997987;28;5002;-69
2022/12/01 08:08:06;;;;;;;;;;;;;;;;;;5002245;28;3485;-69
2022/12/01 08:10:31;;;;;;;;;;;;;;;;;;5015746;28;4714;-69
2022/12/01 08:12:56;;;;;;;;;;;;;;;;;;5021814;28;5084;-66
2022/12/01 08:15:22;;;;;;;;;;;;;;;;;;5018980;28;4636;-69
2022/12/01 08:17:47;;;;;;;;;;;;;;;;;;5021454;28;5064;-70
2022/12/01 08:20:12;;;;;;;;;;;;;;;;;;5021962;28;1334;-70
2022/12/01 08:22:37;;;;;;;;;;;;;;;;;;5029716;28;5203;-70
2022/12/01 08:25:03;;;;;;;;;;;;;;;;;;5017201;28;5158;-70
2022/12/01 08:27:28;;;;;;;;;;;;;;;;;;5021856;28;4479;-70
2022/12/01 08:29:53;;;;;;;;;;;;;;;;;;5015896;28;4949;-66
2022/12/01 08:32:19;;;;;;;;;;;;;;;;;;5019706;28;3516;-66
2022/12/01 08:34:44;;;;;;;;;;;;;;;;;;5025583;28;5058;-68
2022/12/01 08:37:09;;;;;;;;;;;;;;;;;;5029415;28;5027;-64
2022/12/01 08:39:34;;;;;;;;;;;;;;;;;;5021750;28;4576;-67
2022/12/01 08:42:00;;;;;;;;;;;;;;;;;;5026256;28;5151;-69
2022/12/01 08:44:25;;;;;;;;;;;;;;;;;;5015848;28;5519;-65
2022/12/01 08:46:50;;;;;;;;;;;;;;;;;;5016188;28;3344;-68
2022/12/01 08:49:15;;;;;;;;;;;;;;;;;;5023679;28;4639;-71
2022/12/01 08:51:41;;;;;;;;;;;;;;;;;;5023382;28;5047;-70
2022/12/01 08:54:06;;;;;;;;;;;;;;;;;;5029224;28;5282;-73
2022/12/01 08:56:33;;;;;;;;;;;;;;;;;;5017336;28;5008;-72
2022/12/01 08:58:58;;;;;;;;;;;;;;;;;;5009124;28;3263;-73
2022/12/01 09:01:24;;;;;;;;;;;;;;;;;;5002897;28;5012;-73
2022/12/01 09:04:03;;;;;;;;;;;;;;;;;;4999424;28;4523;-70
2022/12/01 09:06:29;;;;;;;;;;;;;;;;;;4994954;28;5251;-71
2022/12/01 09:08:54;;;;;;;;;;;;;;;;;;5005004;28;5100;-71
2022/12/01 09:11:20;;;;;;;;;;;;;;;;;;5011418;28;1932;-68
2022/12/01 09:13:45;;;;;;;;;;;;;;;;;;5022764;28;4880;-71
2022/12/01 09:16:11;;;;;;;;;;;;;;;;;;5028335;28;5086;-72
2022/12/01 09:18:36;;;;;;;;;;;;;;;;;;5030509;28;4994;-72
2022/12/01 09:21:29;;;;;;;;;;;;;;;;;;5030904;28;4914;-72
2022/12/01 09:23:55;;;;;;;;;;;;;;;;;;5020986;28;4669;-73
2022/12/01 09:26:20;;;;;;;;;;;;;;;;;;5028591;28;2418;-69
2022/12/01 09:28:46;;;;;;;;;;;;;;;;;;5019664;28;5044;-70
2022/12/01 09:31:12;;;;;;;;;;;;;;;;;;5017546;28;5116;-70
2022/12/01 09:33:37;;;;;;;;;;;;;;;;;;5020961;28;5067;-72
2022/12/01 09:36:03;;;;;;;;;;;;;;;;;;5026967;28;5190;-72
2022/12/01 09:38:29;;;;;;;;;;;;;;;;;;5030780;28;4556;-71
2022/12/01 09:40:54;;;;;;;;;;;;;;;;;;5024086;28;3454;-71
2022/12/01 09:43:21;;;;;;;;;;;;;;;;;;5024542;28;4634;-68
2022/12/01 09:45:48;;;;;;;;;;;;;;;;;;5017005;28;5130;-72
2022/12/01 09:48:19;;;;;;;;;;;;;;;;;;5031724;28;5212;-70
2022/12/01 09:50:44;;;;;;;;;;;;;;;;;;5023261;28;4511;-71
2022/12/01 09:53:10;;;;;;;;;;;;;;;;;;5022353;28;4473;-70
2022/12/01 09:55:35;;;;;;;;;;;;;;;;;;5027662;28;5284;-69
2022/12/01 09:58:01;;;;;;;;;;;;;;;;;;5037754;28;4651;-69
2022/12/01 10:00:36;;;;;;;;;;;;;;;;;;5037921;28;4645;-71
2022/12/01 10:03:05;;;;;;;;;;;;;;;;;;5028312;28;4497;-71
2022/12/01 10:05:37;;;;;;;;;;;;;;;;;;5026120;28;5091;-71
2022/12/01 10:08:03;;;;;;;;;;;;;;;;;;5036258;28;3151;-71
2022/12/01 10:10:30;;;;;;;;;;;;;;;;;;5041917;28;4614;-70
2022/12/01 10:12:55;;;;;;;;;;;;;;;;;;5033650;28;4607;-66
2022/12/01 10:15:27;;;;;;;;;;;;;;;;;;5030570;28;5113;-70
2022/12/01 10:17:52;;;;;;;;;;;;;;;;;;5026209;28;5232;-72
2022/12/01 10:20:23;;;;;;;;;;;;;;;;;;5023595;28;3023;-69
2022/12/01 10:22:53;;;;;;;;;;;;;;;;;;5023668;28;4921;-70
2022/12/01 10:25:21;;;;;;;;;;;;;;;;;;5019985;28;5061;-66
2022/12/01 10:27:51;;;;;;;;;;;;;;;;;;5014884;28;5317;-67
2022/12/01 10:30:18;;;;;;;;;;;;;;;;;;5004395;28;5184;-66
2022/12/01 10:32:52;;;;;;;;;;;;;;;;;;5007147;28;5062;-66
2022/12/01 10:35:20;;;;;;;;;;;;;;;;;;5008654;28;3234;-67
2022/12/01 10:37:46;;;;;;;;;;;;;;;;;;5011953;28;5178;-65
2022/12/01 10:40:12;;;;;;;;;;;;;;;;;;5021861;28;5142;-67
2022/12/01 10:42:41;;;;;;;;;;;;;;;;;;5022293;28;6038;-67
2022/12/01 10:45:12;;;;;;;;;;;;;;;;;;5007470;28;5088;-66
2022/12/01 10:47:37;;;;;;;;;;;;;;;;;;5015270;28;5100;-67
2022/12/01 10:50:02;;;;;;;;;;;;;;;;;;5015869;28;1333;-67
2022/12/01 10:52:35;;;;;;;;;;;;;;;;;;5019016;28;4463;-66
2022/12/01 10:55:01;;;;;;;;;;;;;;;;;;5017682;28;5116;-66
2022/12/01 10:57:27;;;;;;;;;;;;;;;;;;5022335;28;5171;-67
2022/12/01 10:59:54;;;;;;;;;;;;;;;;;;5032036;28;5473;-66
2022/12/01 11:02:20;;;;;;;;;;;;;;;;;;5021071;28;1413;-66
2022/12/01 11:05:01;;;;;;;;;;;;;;;;;;5035122;28;5142;-66
2022/12/01 11:07:28;;;;;;;;;;;;;;;;;;5031509;28;4951;-66
2022/12/01 11:09:58;;;;;;;;;;;;;;;;;;5019037;28;5065;-66
2022/12/01 11:12:23;;;;;;;;;;;;;;;;;;5034325;28;5147;-67
2022/12/01 11:14:49;;;;;;;;;;;;;;;;;;5023261;28;4708;-67
2022/12/01 11:17:21;;;;;;;;;;;;;;;;;;4997904;28;1577;-66
2022/12/01 11:19:46;;;;;;;;;;;;;;;;;;5016618;28;4913;-64
2022/12/01 11:22:17;;;;;;;;;;;;;;;;;;5019136;28;4918;-67
2022/12/01 11:24:43;;;;;;;;;;;;;;;;;;5014412;28;4655;-67
2022/12/01 11:27:16;;;;;;;;;;;;;;;;;;5032927;28;5090;-67
2022/12/01 11:29:41;;;;;;;;;;;;;;;;;;5000127;28;4872;-67
2022/12/01 11:32:20;;;;;;;;;;;;;;;;;;4996303;28;3454;-67
2022/12/01 11:35:04;;;;;;;;;;;;;;;;;;5027726;28;4452;-66
2022/12/01 11:37:31;;;;;;;;;;;;;;;;;;5034084;28;4514;-66
2022/12/01 11:40:03;;;;;;;;;;;;;;;;;;5022183;28;5173;-66
2022/12/01 11:42:29;;;;;;;;;;;;;;;;;;5020823;28;5031;-65
2022/12/01 11:44:56;;;;;;;;;;;;;;;;;;5021530;28;4602;-67
2022/12/01 11:47:22;;;;;;;;;;;;;;;;;;5035946;28;3500;-66
2022/12/01 11:49:53;;;;;;;;;;;;;;;;;;5024366;28;4631;-66
2022/12/01 11:52:22;;;;;;;;;;;;;;;;;;5017521;28;5065;-68
2022/12/01 11:54:57;;;;;;;;;;;;;;;;;;5037371;28;4676;-66
2022/12/01 11:57:23;;;;;;;;;;;;;;;;;;5018537;28;4444;-67
2022/12/01 11:59:48;;;;;;;;;;;;;;;;;;5023296;28;4667;-66
2022/12/01 12:02:14;;;;;;;;;;;;;;;;;;5026243;28;1458;-66
2022/12/01 12:04:45;;;;;;;;;;;;;;;;;;5017743;28;4423;-67
2022/12/01 12:07:13;;;;;;;;;;;;;;;;;;5025506;28;4448;-67
2022/12/01 12:09:38;;;;;;;;;;;;;;;;;;5022541;28;5033;-66
2022/12/01 12:12:03;;;;;;;;;;;;;;;;;;5025014;28;5053;-67
2022/12/01 12:14:31;;;;;;;;;;;;;;;;;;5023397;28;5167;-65
2022/12/01 12:17:15;;;;;;;;;;;;;;;;;;5023874;28;2027;-66
2022/12/01 12:19:55;;;;;;;;;;;;;;;;;;5017313;28;4600;-65
2022/12/01 12:22:25;;;;;;;;;;;;;;;;;;5023077;28;5179;-67
2022/12/01 12:24:56;;;;;;;;;;;;;;;;;;5019873;28;5502;-67
2022/12/01 12:27:30;;;;;;;;;;;;;;;;;;5018060;28;4477;-68
2022/12/01 12:29:58;;;;;;;;;;;;;;;;;;5013137;28;5206;-67
2022/12/01 12:32:50;;;;;;;;;;;;;;;;;;5016871;28;5298;-66
2022/12/01 12:35:18;;;;;;;;;;;;;;;;;;5020346;28;3412;-65
2022/12/01 12:37:50;;;;;;;;;;;;;;;;;;5018947;28;4479;-68
2022/12/01 12:40:25;;;;;;;;;;;;;;;;;;5022466;28;4992;-68
2022/12/01 12:42:51;;;;;;;;;;;;;;;;;;5024776;28;5056;-67
2022/12/01 12:45:28;;;;;;;;;;;;;;;;;;5019768;28;5055;-68
2022/12/01 12:48:12;;;;;;;;;;;;;;;;;;5032068;28;4503;-67
2022/12/01 12:50:48;;;;;;;;;;;;;;;;;;5020523;28;5095;-68
2022/12/01 12:53:18;;;;;;;;;;;;;;;;;;5036263;28;4568;-67
2022/12/01 12:56:03;;;;;;;;;;;;;;;;;;5005319;28;5113;-68
2022/12/01 12:58:40;;;;;;;;;;;;;;;;;;5016067;28;4854;-68
2022/12/01 13:01:07;;;;;;;;;;;;;;;;;;5020037;28;5107;-66
2022/12/01 13:03:39;;;;;;;;;;;;;;;;;;5019452;28;4514;-73
2022/12/01 13:06:05;;;;;;;;;;;;;;;;;;5030532;28;5149;-68
2022/12/01 13:08:47;;;;;;;;;;;;;;;;;;5034317;28;4732;-68
2022/12/01 13:11:26;;;;;;;;;;;;;;;;;;5042969;28;1981;-69
2022/12/01 13:13:56;;;;;;;;;;;;;;;;;;5040721;28;5094;-67
2022/12/01 13:16:40;;;;;;;;;;;;;;;;;;5027435;28;4919;-68
2022/12/01 13:19:21;;;;;;;;;;;;;;;;;;5020649;28;4781;-66
2022/12/01 13:21:47;;;;;;;;;;;;;;;;;;5023713;28;4448;-69
2022/12/01 13:24:13;;;;;;;;;;;;;;;;;;5024366;28;4604;-69
2022/12/01 13:26:39;;;;;;;;;;;;;;;;;;5032829;28;4946;-68
2022/12/01 13:29:05;;;;;;;;;;;;;;;;;;5029630;28;3235;-68
2022/12/01 13:31:30;;;;;;;;;;;;;;;;;;5036544;28;5220;-67
2022/12/01 13:33:59;;;;;;;;;;;;;;;;;;5043771;28;4629;-63
2022/12/01 13:36:25;;;;;;;;;;;;;;;;;;5027952;28;5025;-68
2022/12/01 13:39:10;;;;;;;;;;;;;;;;;;5023700;28;4515;-66
2022/12/01 13:41:38;;;;;;;;;;;;;;;;;;5009590;28;4519;-67
2022/12/01 13:44:19;;;;;;;;;;;;;;;;;;5028695;28;3963;-66
2022/12/01 13:46:44;;;;;;;;;;;;;;;;;;5009761;28;5080;-63
2022/12/01 13:49:28;;;;;;;;;;;;;;;;;;5013290;28;4742;-73
2022/12/01 13:52:12;;;;;;;;;;;;;;;;;;5022388;28;5126;-72
2022/12/01 13:54:37;;;;;;;;;;;;;;;;;;5014879;28;5018;-72
2022/12/01 13:57:03;;;;;;;;;;;;;;;;;;5001983;28;4910;-72
2022/12/01 13:59:41;;;;;;;;;;;;;;;;;;5017405;28;4626;-71
2022/12/01 14:02:13;;;;;;;;;;;;;;;;;;5019709;28;3300;-75
2022/12/01 14:04:38;;;;;;;;;;;;;;;;;;5022729;28;5025;-74
2022/12/01 14:07:20;;;;;;;;;;;;;;;;;;5020291;28;5113;-75
2022/12/01 14:09:46;;;;;;;;;;;;;;;;;;5039340;28;5830;-74
2022/12/01 14:12:15;;;;;;;;;;;;;;;;;;5015269;28;4542;-75
2022/12/01 14:14:42;;;;;;;;;;;;;;;;;;5018738;28;5206;-73
2022/12/01 14:17:20;;;;;;;;;;;;;;;;;;5036941;28;3625;-74
2022/12/01 14:19:50;;;;;;;;;;;;;;;;;;5000461;28;4947;-65
2022/12/01 14:22:28;;;;;;;;;;;;;;;;;;5007986;28;5933;-70
2022/12/01 14:24:53;;;;;;;;;;;;;;;;;;5016321;28;4989;-73
2022/12/01 14:27:31;;;;;;;;;;;;;;;;;;5029662;28;5534;-68
2022/12/01 14:29:56;;;;;;;;;;;;;;;;;;5017245;28;4864;-67
2022/12/01 14:32:22;;;;;;;;;;;;;;;;;;5020548;28;3008;-69
2022/12/01 14:34:49;;;;;;;;;;;;;;;;;;5014880;28;4980;-68
2022/12/01 14:37:18;;;;;;;;;;;;;;;;;;5012789;28;4634;-70
2022/12/01 14:39:44;;;;;;;;;;;;;;;;;;5023040;28;5440;-69
2022/12/01 14:42:10;;;;;;;;;;;;;;;;;;5034397;28;4682;-67
2022/12/01 14:44:38;;;;;;;;;;;;;;;;;;5025721;28;5102;-71
2022/12/01 14:47:04;;;;;;;;;;;;;;;;;;5001743;28;3476;-70
2022/12/01 14:49:52;;;;;;;;;;;;;;;;;;5021852;28;5181;-71
2022/12/01 14:52:50;;;;;;;;;;;;;;;;;;5006463;28;4980;-70
2022/12/01 14:55:18;;;;;;;;;;;;;;;;;;5010751;28;4779;-69
2022/12/01 14:57:44;;;;;;;;;;;;;;;;;;5009871;28;4980;-67
2022/12/01 15:00:13;;;;;;;;;;;;;;;;;;5022603;28;5089;-66
2022/12/01 15:02:42;;;;;;;;;;;;;;;;;;5024188;28;5179;-65
2022/12/01 15:05:11;;;;;;;;;;;;;;;;;;5035909;28;1221;-66
2022/12/01 15:07:42;;;;;;;;;;;;;;;;;;5036167;28;5105;-67
2022/12/01 15:10:19;;;;;;;;;;;;;;;;;;5035719;28;5150;-65
2022/12/01 15:12:45;;;;;;;;;;;;;;;;;;5018922;28;5821;-66
2022/12/01 15:15:14;;;;;;;;;;;;;;;;;;5022226;28;5724;-67
2022/12/01 15:17:39;;;;;;;;;;;;;;;;;;5001102;28;5067;-69
2022/12/01 15:20:23;;;;;;;;;;;;;;;;;;5014058;28;3651;-67
2022/12/01 15:22:49;;;;;;;;;;;;;;;;;;5014550;28;4265;-67
2022/12/01 15:25:15;;;;;;;;;;;;;;;;;;5026438;28;4978;-66
2022/12/01 15:27:41;;;;;;;;;;;;;;;;;;5030237;28;5329;-67
2022/12/01 15:30:09;;;;;;;;;;;;;;;;;;5026865;28;5035;-66
2022/12/01 15:32:36;;;;;;;;;;;;;;;;;;4979289;28;5213;-66
2022/12/01 15:35:03;;;;;;;;;;;;;;;;;;5005565;28;3459;-65
2022/12/01 15:37:29;;;;;;;;;;;;;;;;;;4992858;28;5175;-65
2022/12/01 15:40:00;;;;;;;;;;;;;;;;;;5008825;28;5285;-65
2022/12/01 15:42:29;;;;;;;;;;;;;;;;;;5004947;28;4626;-65
2022/12/01 15:45:01;;;;;;;;;;;;;;;;;;4990933;28;5204;-65
2022/12/01 15:47:36;;;;;;;;;;;;;;;;;;4989270;28;5506;-66
2022/12/01 15:50:02;;;;;;;;;;;;;;;;;;5027396;28;3294;-66
2022/12/01 15:52:27;;;;;;;;;;;;;;;;;;5004151;28;4930;-66
2022/12/01 15:54:52;;;;;;;;;;;;;;;;;;5020886;28;5094;-66
2022/12/01 15:57:18;;;;;;;;;;;;;;;;;;5005816;28;4876;-66
2022/12/01 15:59:44;;;;;;;;;;;;;;;;;;5008252;28;4557;-66
2022/12/01 16:02:18;;;;;;;;;;;;;;;;;;5019880;28;2144;-66
2022/12/01 16:04:43;;;;;;;;;;;;;;;;;;5005079;28;4859;-65
2022/12/01 16:07:09;;;;;;;;;;;;;;;;;;5007827;28;5108;-65
2022/12/01 16:09:35;;;;;;;;;;;;;;;;;;5002782;28;5137;-66
2022/12/01 16:12:16;;;;;;;;;;;;;;;;;;5002066;28;4471;-65
2022/12/01 16:15:08;;;;;;;;;;;;;;;;;;5045172;28;4991;-66
2022/12/01 16:17:44;;;;;;;;;;;;;;;;;;5021807;28;4989;-65
2022/12/01 16:20:09;;;;;;;;;;;;;;;;;;5030596;28;1186;-66
2022/12/01 16:22:35;;;;;;;;;;;;;;;;;;5030392;28;5134;-65
2022/12/01 16:25:00;;;;;;;;;;;;;;;;;;5031111;28;4959;-66
2022/12/01 16:27:26;;;;;;;;;;;;;;;;;;5029701;28;5084;-66
2022/12/01 16:29:52;;;;;;;;;;;;;;;;;;5027977;28;5090;-65
2022/12/01 16:32:38;;;;;;;;;;;;;;;;;;5022768;28;1983;-66
2022/12/01 16:35:19;;;;;;;;;;;;;;;;;;5022013;28;4927;-66
2022/12/01 16:37:44;;;;;;;;;;;;;;;;;;5015994;28;4897;-65
2022/12/01 16:40:11;;;;;;;;;;;;;;;;;;5019624;28;5274;-65
2022/12/01 16:42:36;;;;;;;;;;;;;;;;;;5019490;28;4948;-66
2022/12/01 16:45:02;;;;;;;;;;;;;;;;;;5018151;28;5110;-65
2022/12/01 16:47:28;;;;;;;;;;;;;;;;;;5014055;28;5027;-65
2022/12/01 16:49:53;;;;;;;;;;;;;;;;;;5028235;28;3307;-66
2022/12/01 16:52:18;;;;;;;;;;;;;;;;;;5023692;28;5103;-65
2022/12/01 16:54:43;;;;;;;;;;;;;;;;;;5022262;28;4995;-66
2022/12/01 16:57:09;;;;;;;;;;;;;;;;;;5019160;28;5160;-66
2022/12/01 16:59:34;;;;;;;;;;;;;;;;;;5028662;28;4492;-66
2022/12/01 17:01:59;;;;;;;;;;;;;;;;;;5025363;28;1825;-66
2022/12/01 17:04:24;;;;;;;;;;;;;;;;;;5030479;28;5063;-65
2022/12/01 17:06:50;;;;;;;;;;;;;;;;;;5026603;28;5758;-66
2022/12/01 17:09:15;;;;;;;;;;;;;;;;;;5025385;28;5107;-66
2022/12/01 17:11:40;;;;;;;;;;;;;;;;;;5022092;28;5100;-65
2022/12/01 17:14:05;;;;;;;;;;;;;;;;;;5028252;28;1570;-66